Time;durP1;ratioP1;P1;durP2;ratioP2;P2;SDS_P1;SDS_P2;PMS_P1;PMS_P2;Temp;Humidity;BMP_temperature;BMP_pressure;BME280_temperature;BME280_humidity;BME280_pressure;Samples;Min_cycle;Max_cycle;Signal;HPM_P1;HPM_P2
2022/05/17 00:00:20;;;;;;;12.57;3.88;;;;;;;;;;5030325;28;20231;-62
2022/05/17 00:02:46;;;;;;;10.82;3.95;;;;;;;;;;5030340;28;20779;-63
2022/05/17 00:05:11;;;;;;;10.70;3.80;;;;;;;;;;5029877;28;20293;-62
2022/05/17 00:07:37;;;;;;;11.90;3.78;;;;;;;;;;5031838;28;20226;-63
2022/05/17 00:10:02;;;;;;;7.00;2.90;;;;;;;;;;5033389;28;20683;-63
2022/05/17 00:12:28;;;;;;;8.98;3.40;;;;;;;;;;5034250;28;20274;-62
2022/05/17 00:14:53;;;;;;;10.20;3.45;;;;;;;;;;5034059;28;20287;-62
2022/05/17 00:17:19;;;;;;;9.00;3.42;;;;;;;;;;5013755;28;20597;-62
2022/05/17 00:19:44;;;;;;;14.50;3.47;;;;;;;;;;5014006;28;20262;-63
2022/05/17 00:22:10;;;;;;;11.68;3.85;;;;;;;;;;5014044;28;20712;-62
2022/05/17 00:24:35;;;;;;;13.90;3.72;;;;;;;;;;5013970;28;20212;-63
2022/05/17 00:27:00;;;;;;;11.98;3.80;;;;;;;;;;5012746;28;20255;-62
2022/05/17 00:29:25;;;;;;;11.10;3.65;;;;;;;;;;5014184;28;20215;-62
2022/05/17 00:31:50;;;;;;;10.13;3.35;;;;;;;;;;5014046;28;20252;-63
2022/05/17 00:34:16;;;;;;;10.48;2.83;;;;;;;;;;5014795;28;20583;-62
2022/05/17 00:36:41;;;;;;;11.32;4.20;;;;;;;;;;5014116;28;20212;-62
2022/05/17 00:39:06;;;;;;;9.68;3.35;;;;;;;;;;5013102;28;20223;-62
2022/05/17 00:41:32;;;;;;;9.88;3.88;;;;;;;;;;5013796;28;20294;-62
2022/05/17 00:46:40;;;;;;;10.55;3.60;;;;;;;;;;5013268;28;20224;-63
2022/05/17 00:49:07;;;;;;;8.60;3.70;;;;;;;;;;4995241;28;20213;-62
2022/05/17 00:51:32;;;;;;;7.85;3.30;;;;;;;;;;5009410;28;20259;-63
2022/05/17 00:54:01;;;;;;;11.00;4.25;;;;;;;;;;4993556;28;20236;-62
2022/05/17 00:56:27;;;;;;;14.20;4.35;;;;;;;;;;4994152;28;20221;-62
2022/05/17 00:58:54;;;;;;;10.82;4.30;;;;;;;;;;5008762;28;20221;-62
2022/05/17 01:01:19;;;;;;;10.15;3.67;;;;;;;;;;5004763;28;20220;-62
2022/05/17 01:03:55;;;;;;;9.07;3.38;;;;;;;;;;5015707;28;20212;-62
2022/05/17 01:06:21;;;;;;;11.32;3.65;;;;;;;;;;5014445;28;20216;-62
2022/05/17 01:08:46;;;;;;;9.90;3.47;;;;;;;;;;5033205;28;20237;-62
2022/05/17 01:11:11;;;;;;;9.32;3.38;;;;;;;;;;5032909;28;20220;-62
2022/05/17 01:16:20;;;;;;;7.28;3.40;;;;;;;;;;5005172;28;20695;-62
2022/05/17 01:18:45;;;;;;;12.80;3.92;;;;;;;;;;5011753;28;20205;-62
2022/05/17 01:21:11;;;;;;;9.77;3.70;;;;;;;;;;5012182;28;20672;-62
2022/05/17 01:23:36;;;;;;;10.80;3.85;;;;;;;;;;5013372;28;20295;-62
2022/05/17 01:26:03;;;;;;;10.57;3.90;;;;;;;;;;5013033;28;20225;-62
2022/05/17 01:28:30;;;;;;;9.90;3.50;;;;;;;;;;5013062;28;20213;-62
2022/05/17 01:31:03;;;;;;;10.98;4.03;;;;;;;;;;5012196;28;20228;-62
2022/05/17 01:33:28;;;;;;;10.75;3.97;;;;;;;;;;5026294;28;20219;-63
2022/05/17 01:35:54;;;;;;;10.60;3.95;;;;;;;;;;5032081;28;20220;-63
2022/05/17 01:38:19;;;;;;;10.52;3.95;;;;;;;;;;5032667;28;20698;-62
2022/05/17 01:40:44;;;;;;;11.02;4.18;;;;;;;;;;5032801;28;20298;-62
2022/05/17 01:43:09;;;;;;;11.60;3.70;;;;;;;;;;5031519;28;20211;-62
2022/05/17 01:45:35;;;;;;;10.73;4.00;;;;;;;;;;5032414;28;20307;-62
2022/05/17 01:48:00;;;;;;;13.02;4.20;;;;;;;;;;5022770;28;20208;-62
2022/05/17 01:50:25;;;;;;;9.38;3.85;;;;;;;;;;5011874;28;20216;-62
2022/05/17 01:52:50;;;;;;;10.30;4.35;;;;;;;;;;4995336;28;20235;-62
2022/05/17 01:55:16;;;;;;;11.68;4.32;;;;;;;;;;5011917;28;20295;-62
2022/05/17 01:57:41;;;;;;;11.10;4.10;;;;;;;;;;5012808;28;20239;-62
2022/05/17 02:00:08;;;;;;;9.35;3.67;;;;;;;;;;5011902;28;20212;-62
2022/05/17 02:02:33;;;;;;;15.15;4.00;;;;;;;;;;5011692;28;20244;-62
2022/05/17 02:04:58;;;;;;;9.48;3.90;;;;;;;;;;5012341;28;20624;-62
2022/05/17 02:07:24;;;;;;;12.02;4.47;;;;;;;;;;5012171;28;20213;-62
2022/05/17 02:09:49;;;;;;;12.40;4.13;;;;;;;;;;5012197;28;20758;-62
2022/05/17 02:12:14;;;;;;;9.25;3.83;;;;;;;;;;5011793;28;20259;-62
2022/05/17 02:14:39;;;;;;;9.80;3.72;;;;;;;;;;5014084;28;20212;-62
2022/05/17 02:17:05;;;;;;;10.48;4.10;;;;;;;;;;5030737;28;20251;-63
2022/05/17 02:19:30;;;;;;;12.73;4.07;;;;;;;;;;5031466;28;20797;-62
2022/05/17 02:21:55;;;;;;;11.80;3.97;;;;;;;;;;5032087;28;20222;-62
2022/05/17 02:24:22;;;;;;;10.15;4.15;;;;;;;;;;5031455;28;20219;-63
2022/05/17 02:26:47;;;;;;;10.30;4.28;;;;;;;;;;5032124;28;20212;-62
2022/05/17 02:29:13;;;;;;;10.48;4.13;;;;;;;;;;5031465;28;20729;-62
2022/05/17 02:31:38;;;;;;;9.85;4.00;;;;;;;;;;5030033;28;20686;-62
2022/05/17 02:34:03;;;;;;;10.13;4.03;;;;;;;;;;5012589;28;20223;-62
2022/05/17 02:36:29;;;;;;;9.07;3.95;;;;;;;;;;5012031;28;20224;-62
2022/05/17 02:38:54;;;;;;;8.45;4.00;;;;;;;;;;5011566;28;20216;-63
2022/05/17 02:41:20;;;;;;;11.65;3.95;;;;;;;;;;5011470;28;20243;-62
2022/05/17 02:43:46;;;;;;;10.25;4.13;;;;;;;;;;5011950;28;20212;-62
2022/05/17 02:46:11;;;;;;;10.80;4.10;;;;;;;;;;5010457;28;20220;-62
2022/05/17 02:48:36;;;;;;;11.13;4.20;;;;;;;;;;5025789;28;20748;-62
2022/05/17 02:51:09;;;;;;;10.43;4.20;;;;;;;;;;5030976;28;20226;-62
2022/05/17 02:53:34;;;;;;;8.30;4.22;;;;;;;;;;5030821;28;20257;-63
2022/05/17 02:55:59;;;;;;;11.10;4.22;;;;;;;;;;5031833;28;20220;-63
2022/05/17 02:58:25;;;;;;;12.15;3.70;;;;;;;;;;5030423;28;20213;-63
2022/05/17 03:00:50;;;;;;;9.23;3.90;;;;;;;;;;5030836;28;20269;-63
2022/05/17 03:03:15;;;;;;;8.27;3.60;;;;;;;;;;5030449;28;20260;-62
2022/05/17 03:05:40;;;;;;;11.10;4.50;;;;;;;;;;5030859;28;20227;-62
2022/05/17 03:08:06;;;;;;;9.70;3.97;;;;;;;;;;5030736;28;20234;-62
2022/05/17 03:10:31;;;;;;;9.95;3.92;;;;;;;;;;5031517;28;20293;-62
2022/05/17 03:12:57;;;;;;;9.90;4.32;;;;;;;;;;5030837;28;20220;-62
2022/05/17 03:15:22;;;;;;;8.75;3.95;;;;;;;;;;5026748;28;20219;-62
2022/05/17 03:17:47;;;;;;;9.60;4.30;;;;;;;;;;5030772;28;20621;-62
2022/05/17 03:20:12;;;;;;;12.93;4.05;;;;;;;;;;5030298;28;20746;-62
2022/05/17 03:22:38;;;;;;;10.27;4.20;;;;;;;;;;5031150;28;20215;-62
2022/05/17 03:25:03;;;;;;;13.10;4.47;;;;;;;;;;5030960;28;20679;-62
2022/05/17 03:27:28;;;;;;;10.20;4.35;;;;;;;;;;5030978;28;20216;-62
2022/05/17 03:29:54;;;;;;;10.50;4.82;;;;;;;;;;5030898;28;20211;-62
2022/05/17 03:32:19;;;;;;;10.15;4.82;;;;;;;;;;5025850;28;20224;-62
2022/05/17 03:34:44;;;;;;;10.02;4.10;;;;;;;;;;5010606;28;20212;-62
2022/05/17 03:37:09;;;;;;;9.57;4.40;;;;;;;;;;5010601;28;20208;-62
2022/05/17 03:39:35;;;;;;;8.80;4.18;;;;;;;;;;5011670;28;20209;-62
2022/05/17 03:42:00;;;;;;;9.00;4.30;;;;;;;;;;5012456;28;20213;-62
2022/05/17 03:44:25;;;;;;;10.85;4.82;;;;;;;;;;5034263;28;20306;-62
2022/05/17 03:46:51;;;;;;;11.60;4.32;;;;;;;;;;5034764;28;20561;-62
2022/05/17 03:49:16;;;;;;;9.52;4.50;;;;;;;;;;5052807;28;20291;-62
2022/05/17 03:51:41;;;;;;;10.93;4.47;;;;;;;;;;5054741;28;20223;-62
2022/05/17 03:54:07;;;;;;;10.40;5.10;;;;;;;;;;5054385;28;20219;-62
2022/05/17 03:56:32;;;;;;;11.55;4.90;;;;;;;;;;5054111;28;20731;-62
2022/05/17 03:58:57;;;;;;;9.80;4.18;;;;;;;;;;5054540;28;20731;-62
2022/05/17 04:01:22;;;;;;;10.13;4.95;;;;;;;;;;5053825;28;20631;-62
2022/05/17 04:03:48;;;;;;;10.75;4.18;;;;;;;;;;5035283;28;20211;-62
2022/05/17 04:06:13;;;;;;;8.75;4.40;;;;;;;;;;5053987;28;20294;-62
2022/05/17 04:08:38;;;;;;;11.20;4.10;;;;;;;;;;5054161;28;20233;-62
2022/05/17 04:11:04;;;;;;;10.45;4.97;;;;;;;;;;5053821;28;20234;-62
2022/05/17 04:13:31;;;;;;;9.48;4.63;;;;;;;;;;5054361;28;20221;-62
2022/05/17 04:15:57;;;;;;;9.68;4.50;;;;;;;;;;5050050;28;20221;-62
2022/05/17 04:18:22;;;;;;;10.88;4.32;;;;;;;;;;5053264;28;20364;-62
2022/05/17 04:20:47;;;;;;;12.18;4.55;;;;;;;;;;5053754;28;20734;-62
2022/05/17 04:23:12;;;;;;;9.82;4.07;;;;;;;;;;5053295;28;20613;-62
2022/05/17 04:25:38;;;;;;;10.88;4.45;;;;;;;;;;5054382;28;20281;-62
2022/05/17 04:28:03;;;;;;;9.75;4.55;;;;;;;;;;5053988;28;20215;-62
2022/05/17 04:30:28;;;;;;;17.33;4.80;;;;;;;;;;5053458;28;20298;-62
2022/05/17 04:32:54;;;;;;;9.60;4.38;;;;;;;;;;5026497;28;20220;-63
2022/05/17 04:35:19;;;;;;;9.60;4.13;;;;;;;;;;5033386;28;20663;-62
2022/05/17 04:37:44;;;;;;;12.82;4.30;;;;;;;;;;5033450;28;20216;-62
2022/05/17 04:40:10;;;;;;;13.18;4.45;;;;;;;;;;5033426;28;20282;-62
2022/05/17 04:42:36;;;;;;;10.45;4.13;;;;;;;;;;5034089;28;20223;-62
2022/05/17 04:45:02;;;;;;;11.02;4.20;;;;;;;;;;5032923;28;20218;-62
2022/05/17 04:47:28;;;;;;;8.90;3.85;;;;;;;;;;5038207;28;20215;-62
2022/05/17 04:49:54;;;;;;;10.35;4.28;;;;;;;;;;5053169;28;20268;-62
2022/05/17 04:52:19;;;;;;;10.98;4.68;;;;;;;;;;5052395;28;20227;-62
2022/05/17 04:54:44;;;;;;;9.10;3.92;;;;;;;;;;5052752;28;20677;-62
2022/05/17 04:57:10;;;;;;;9.15;3.80;;;;;;;;;;5053367;28;20211;-62
2022/05/17 04:59:35;;;;;;;10.63;3.95;;;;;;;;;;5052680;28;20223;-62
2022/05/17 05:02:01;;;;;;;10.35;4.43;;;;;;;;;;5052633;28;20246;-62
2022/05/17 05:04:26;;;;;;;10.93;4.40;;;;;;;;;;5053048;28;20300;-62
2022/05/17 05:06:51;;;;;;;8.13;4.05;;;;;;;;;;5052461;28;20215;-62
2022/05/17 05:09:16;;;;;;;10.52;4.80;;;;;;;;;;5052927;28;20210;-62
2022/05/17 05:11:42;;;;;;;10.20;4.38;;;;;;;;;;5053515;28;20643;-62
2022/05/17 05:14:08;;;;;;;10.48;4.90;;;;;;;;;;5052006;28;20223;-62
2022/05/17 05:16:35;;;;;;;11.45;5.20;;;;;;;;;;5049524;28;20203;-63
2022/05/17 05:19:01;;;;;;;10.48;4.50;;;;;;;;;;5051758;28;20211;-62
2022/05/17 05:21:26;;;;;;;16.42;5.40;;;;;;;;;;5052552;28;20211;-62
2022/05/17 05:23:52;;;;;;;10.52;5.32;;;;;;;;;;5053160;28;20245;-62
2022/05/17 05:26:18;;;;;;;16.95;6.15;;;;;;;;;;5052147;28;20226;-62
2022/05/17 05:28:43;;;;;;;16.02;5.53;;;;;;;;;;5052939;28;20211;-63
2022/05/17 05:31:10;;;;;;;17.90;5.80;;;;;;;;;;5034435;28;20223;-62
2022/05/17 05:33:35;;;;;;;16.90;5.88;;;;;;;;;;5037435;28;20261;-62
2022/05/17 05:36:01;;;;;;;15.50;6.53;;;;;;;;;;5031868;28;20208;-62
2022/05/17 05:38:26;;;;;;;14.57;6.40;;;;;;;;;;5032808;28;20215;-63
2022/05/17 05:40:51;;;;;;;18.55;6.32;;;;;;;;;;5032549;28;20287;-63
2022/05/17 05:43:17;;;;;;;14.50;5.95;;;;;;;;;;5032214;28;20572;-63
2022/05/17 05:45:42;;;;;;;12.98;6.20;;;;;;;;;;5032709;28;20204;-62
2022/05/17 05:48:07;;;;;;;14.32;6.65;;;;;;;;;;5041532;28;20599;-62
2022/05/17 05:50:32;;;;;;;12.30;6.63;;;;;;;;;;5051744;28;20215;-63
2022/05/17 05:52:59;;;;;;;12.95;6.68;;;;;;;;;;5052528;28;20215;-62
2022/05/17 05:55:24;;;;;;;15.77;6.05;;;;;;;;;;5051647;28;20215;-63
2022/05/17 05:57:50;;;;;;;9.98;5.90;;;;;;;;;;5052421;28;20749;-63
2022/05/17 06:00:16;;;;;;;16.58;6.13;;;;;;;;;;5051898;28;20286;-63
2022/05/17 06:02:41;;;;;;;12.20;6.25;;;;;;;;;;5051477;28;20231;-62
2022/05/17 06:05:06;;;;;;;10.73;5.82;;;;;;;;;;5051203;28;20565;-63
2022/05/17 06:07:32;;;;;;;16.48;5.88;;;;;;;;;;5052252;28;20303;-62
2022/05/17 06:09:57;;;;;;;12.98;5.40;;;;;;;;;;5051280;28;20294;-63
2022/05/17 06:12:22;;;;;;;13.48;5.45;;;;;;;;;;5052212;28;20292;-63
2022/05/17 06:14:47;;;;;;;10.82;4.50;;;;;;;;;;5049008;28;20204;-63
2022/05/17 06:17:13;;;;;;;9.32;3.95;;;;;;;;;;5050357;28;20313;-63
2022/05/17 06:19:38;;;;;;;11.23;3.75;;;;;;;;;;5051583;28;20239;-63
2022/05/17 06:22:03;;;;;;;7.95;2.20;;;;;;;;;;5051312;28;20755;-63
2022/05/17 06:24:29;;;;;;;8.68;1.98;;;;;;;;;;5051199;28;20655;-63
2022/05/17 06:26:54;;;;;;;6.40;1.70;;;;;;;;;;5052126;28;20206;-63
2022/05/17 06:29:19;;;;;;;7.78;2.00;;;;;;;;;;5050736;28;20241;-63
2022/05/17 06:31:45;;;;;;;7.53;2.22;;;;;;;;;;5051408;28;20704;-63
2022/05/17 06:34:10;;;;;;;5.72;1.80;;;;;;;;;;5029813;28;20223;-62
2022/05/17 06:36:35;;;;;;;9.38;2.03;;;;;;;;;;5031157;28;20216;-63
2022/05/17 06:39:00;;;;;;;9.35;2.00;;;;;;;;;;5031301;28;20235;-63
2022/05/17 06:41:26;;;;;;;7.75;1.77;;;;;;;;;;5031988;28;20270;-63
2022/05/17 06:43:51;;;;;;;9.43;2.10;;;;;;;;;;5031364;28;20294;-63
2022/05/17 06:46:16;;;;;;;8.18;2.20;;;;;;;;;;5030952;28;20204;-63
2022/05/17 06:48:43;;;;;;;8.38;1.95;;;;;;;;;;5046289;28;20297;-63
2022/05/17 06:51:08;;;;;;;9.75;2.08;;;;;;;;;;5049956;28;20349;-62
2022/05/17 06:53:34;;;;;;;8.18;1.67;;;;;;;;;;5051119;28;20301;-63
2022/05/17 06:55:59;;;;;;;6.75;1.67;;;;;;;;;;5051529;28;20215;-62
2022/05/17 06:58:25;;;;;;;7.88;1.85;;;;;;;;;;5050718;28;20574;-63
2022/05/17 07:00:50;;;;;;;9.52;2.20;;;;;;;;;;5051019;28;20215;-63
2022/05/17 07:03:15;;;;;;;9.25;2.30;;;;;;;;;;5050462;28;20235;-63
2022/05/17 07:05:40;;;;;;;8.63;1.80;;;;;;;;;;5050220;28;20211;-63
2022/05/17 07:08:06;;;;;;;7.07;1.67;;;;;;;;;;5050789;28;20585;-63
2022/05/17 07:13:16;;;;;;;8.95;1.65;;;;;;;;;;5050248;28;20651;-63
2022/05/17 07:15:42;;;;;;;5.80;1.80;;;;;;;;;;5047551;28;20689;-63
2022/05/17 07:18:08;;;;;;;7.22;2.03;;;;;;;;;;5056947;28;20215;-63
2022/05/17 07:20:33;;;;;;;9.43;1.58;;;;;;;;;;5057060;28;20630;-63
2022/05/17 07:22:58;;;;;;;7.15;1.50;;;;;;;;;;5057686;28;20221;-63
2022/05/17 07:25:24;;;;;;;10.50;1.75;;;;;;;;;;5057708;28;20221;-63
2022/05/17 07:27:49;;;;;;;8.70;1.92;;;;;;;;;;5057294;28;20211;-63
2022/05/17 07:30:14;;;;;;;7.03;1.67;;;;;;;;;;5057071;28;20302;-63
2022/05/17 07:32:40;;;;;;;7.93;1.80;;;;;;;;;;5049551;28;20756;-63
2022/05/17 07:35:06;;;;;;;8.70;1.90;;;;;;;;;;5036920;28;20215;-63
2022/05/17 07:37:32;;;;;;;6.35;1.52;;;;;;;;;;5037937;28;20216;-63
2022/05/17 07:39:57;;;;;;;6.47;1.40;;;;;;;;;;5037123;28;20578;-63
2022/05/17 07:42:22;;;;;;;7.55;1.73;;;;;;;;;;5037289;28;20215;-63
2022/05/17 07:44:48;;;;;;;5.72;1.40;;;;;;;;;;5037376;28;20207;-63
2022/05/17 07:47:13;;;;;;;5.30;1.27;;;;;;;;;;5038912;28;20244;-63
2022/05/17 07:49:38;;;;;;;12.05;1.88;;;;;;;;;;5057187;28;20207;-64
2022/05/17 07:52:04;;;;;;;10.80;2.08;;;;;;;;;;5056864;28;20339;-63
2022/05/17 07:54:29;;;;;;;8.00;1.58;;;;;;;;;;5057284;28;20214;-64
2022/05/17 07:56:55;;;;;;;8.57;1.58;;;;;;;;;;5057425;28;20210;-63
2022/05/17 07:59:20;;;;;;;10.27;1.80;;;;;;;;;;5056956;28;20667;-63
2022/05/17 08:01:46;;;;;;;6.65;1.65;;;;;;;;;;5056425;28;20237;-63
2022/05/17 08:04:11;;;;;;;8.88;1.70;;;;;;;;;;5056843;28;20304;-63
2022/05/17 08:06:36;;;;;;;8.30;1.67;;;;;;;;;;5057371;28;20257;-63
2022/05/17 08:09:03;;;;;;;7.03;1.73;;;;;;;;;;5056071;28;20227;-63
2022/05/17 08:11:28;;;;;;;9.57;2.03;;;;;;;;;;5039577;28;20221;-63
2022/05/17 08:13:54;;;;;;;7.10;1.60;;;;;;;;;;5057357;28;20222;-64
2022/05/17 08:16:19;;;;;;;7.65;1.90;;;;;;;;;;5052330;28;20207;-63
2022/05/17 08:18:44;;;;;;;7.68;1.85;;;;;;;;;;5057287;28;20231;-63
2022/05/17 08:21:09;;;;;;;6.82;1.80;;;;;;;;;;5056581;28;20210;-63
2022/05/17 08:23:35;;;;;;;9.20;1.75;;;;;;;;;;5056778;28;20210;-63
2022/05/17 08:28:44;;;;;;;9.43;1.80;;;;;;;;;;5053450;28;20371;-63
2022/05/17 08:31:10;;;;;;;9.05;1.80;;;;;;;;;;5052403;28;20313;-63
2022/05/17 08:33:36;;;;;;;6.20;1.50;;;;;;;;;;5038926;28;20204;-63
2022/05/17 08:36:04;;;;;;;14.50;2.00;;;;;;;;;;5033124;28;20212;-63
2022/05/17 08:38:31;;;;;;;10.00;1.80;;;;;;;;;;5033885;28;20265;-63
2022/05/17 08:41:09;;;;;;;10.52;2.72;;;;;;;;;;5016178;28;20295;-63
2022/05/17 08:43:37;;;;;;;11.23;1.95;;;;;;;;;;5032826;28;20234;-63
2022/05/17 08:46:03;;;;;;;11.23;2.13;;;;;;;;;;5015218;28;20226;-63
2022/05/17 08:48:28;;;;;;;7.95;1.80;;;;;;;;;;5046712;28;20600;-63
2022/05/17 08:50:54;;;;;;;9.40;1.98;;;;;;;;;;5035016;28;20250;-63
2022/05/17 08:53:19;;;;;;;7.55;1.92;;;;;;;;;;5053371;28;20211;-63
2022/05/17 08:55:44;;;;;;;9.45;1.70;;;;;;;;;;5053322;28;20294;-64
2022/05/17 08:58:13;;;;;;;13.02;2.10;;;;;;;;;;5034446;28;20651;-64
2022/05/17 09:00:40;;;;;;;9.35;1.80;;;;;;;;;;5035969;28;20303;-63
2022/05/17 09:03:10;;;;;;;8.57;2.38;;;;;;;;;;5052725;28;20314;-64
2022/05/17 09:05:38;;;;;;;8.90;1.90;;;;;;;;;;5035174;28;20238;-63
2022/05/17 09:08:19;;;;;;;7.75;1.90;;;;;;;;;;5035159;28;20215;-63
2022/05/17 09:10:48;;;;;;;9.98;2.28;;;;;;;;;;5034889;28;20268;-63
2022/05/17 09:13:23;;;;;;;11.55;1.85;;;;;;;;;;5034849;28;20238;-63
2022/05/17 09:15:48;;;;;;;10.80;1.77;;;;;;;;;;5049959;28;20369;-63
2022/05/17 09:18:14;;;;;;;10.02;1.60;;;;;;;;;;5034664;28;20290;-63
2022/05/17 09:20:40;;;;;;;9.18;1.70;;;;;;;;;;5035253;28;20298;-63
2022/05/17 09:23:05;;;;;;;7.97;1.63;;;;;;;;;;5052500;28;20294;-64
2022/05/17 09:25:43;;;;;;;10.00;1.80;;;;;;;;;;5052287;28;20218;-63
2022/05/17 09:28:08;;;;;;;5.80;1.70;;;;;;;;;;5052253;28;20221;-63
2022/05/17 09:30:34;;;;;;;8.70;1.60;;;;;;;;;;5035388;28;20219;-63
2022/05/17 09:33:03;;;;;;;7.70;1.75;;;;;;;;;;5042034;28;20228;-63
2022/05/17 09:35:28;;;;;;;8.27;1.90;;;;;;;;;;5014772;28;20231;-64
2022/05/17 09:37:56;;;;;;;8.35;1.92;;;;;;;;;;5032788;28;20675;-63
2022/05/17 09:40:23;;;;;;;10.45;1.98;;;;;;;;;;5031240;28;20258;-63
2022/05/17 09:42:53;;;;;;;10.13;1.60;;;;;;;;;;5014871;28;20589;-63
2022/05/17 09:45:18;;;;;;;8.38;1.85;;;;;;;;;;5032633;28;20211;-63
2022/05/17 09:47:53;;;;;;;10.07;1.58;;;;;;;;;;5038715;28;20219;-63
2022/05/17 09:53:04;;;;;;;10.20;1.70;;;;;;;;;;5051859;28;20720;-63
2022/05/17 09:55:31;;;;;;;7.70;1.90;;;;;;;;;;5051746;28;20265;-63
2022/05/17 09:57:58;;;;;;;6.22;1.45;;;;;;;;;;5052372;28;20217;-63
2022/05/17 10:00:30;;;;;;;7.78;1.77;;;;;;;;;;5051688;28;20301;-64
2022/05/17 10:03:00;;;;;;;9.07;1.80;;;;;;;;;;5051584;28;20231;-63
2022/05/17 10:05:27;;;;;;;8.23;2.03;;;;;;;;;;5034187;28;20250;-64
2022/05/17 10:08:02;;;;;;;8.05;1.58;;;;;;;;;;5051815;28;20226;-63
2022/05/17 10:10:27;;;;;;;5.15;1.42;;;;;;;;;;5051894;28;20222;-63
2022/05/17 10:12:56;;;;;;;7.13;1.75;;;;;;;;;;5052063;28;20255;-64
2022/05/17 10:15:21;;;;;;;6.60;1.63;;;;;;;;;;5029927;28;20238;-64
2022/05/17 10:17:51;;;;;;;8.10;2.17;;;;;;;;;;5052002;28;20668;-63
2022/05/17 10:20:18;;;;;;;8.40;1.70;;;;;;;;;;5051542;28;20595;-64
2022/05/17 10:22:49;;;;;;;7.82;2.10;;;;;;;;;;5033670;28;20211;-63
2022/05/17 10:25:20;;;;;;;8.05;1.90;;;;;;;;;;5051518;28;20302;-63
2022/05/17 10:27:49;;;;;;;14.55;2.38;;;;;;;;;;5033663;28;20238;-63
2022/05/17 10:30:15;;;;;;;10.20;2.10;;;;;;;;;;5032734;28;20235;-63
2022/05/17 10:32:50;;;;;;;9.52;1.90;;;;;;;;;;5026349;28;20220;-63
2022/05/17 10:35:17;;;;;;;12.68;2.30;;;;;;;;;;5031532;28;20752;-63
2022/05/17 10:37:47;;;;;;;8.15;2.20;;;;;;;;;;5031341;28;20265;-63
2022/05/17 10:40:13;;;;;;;9.80;2.05;;;;;;;;;;5013811;28;20222;-63
2022/05/17 10:42:38;;;;;;;11.18;2.33;;;;;;;;;;5030757;28;20247;-63
2022/05/17 10:45:05;;;;;;;9.80;2.63;;;;;;;;;;5030859;28;20216;-63
2022/05/17 10:47:39;;;;;;;8.93;2.55;;;;;;;;;;5036487;28;20218;-63
2022/05/17 10:50:08;;;;;;;8.07;2.47;;;;;;;;;;5050752;28;20219;-63
2022/05/17 10:52:44;;;;;;;10.65;2.80;;;;;;;;;;5050413;28;20225;-63
2022/05/17 10:55:13;;;;;;;8.38;2.40;;;;;;;;;;5033352;28;20681;-63
2022/05/17 10:57:51;;;;;;;8.88;2.58;;;;;;;;;;5032482;28;20245;-63
2022/05/17 11:00:18;;;;;;;7.60;2.17;;;;;;;;;;5033635;28;20211;-63
2022/05/17 11:02:57;;;;;;;10.27;2.17;;;;;;;;;;5051276;28;20234;-63
2022/05/17 11:05:31;;;;;;;10.07;3.03;;;;;;;;;;5032170;28;20294;-63
2022/05/17 11:08:02;;;;;;;10.70;3.13;;;;;;;;;;5051059;28;20240;-63
2022/05/17 11:10:38;;;;;;;9.45;3.30;;;;;;;;;;5029938;28;20208;-63
2022/05/17 11:13:12;;;;;;;10.20;4.10;;;;;;;;;;5013138;28;20565;-63
2022/05/17 11:15:38;;;;;;;9.02;3.67;;;;;;;;;;5016785;28;20588;-63
2022/05/17 11:18:12;;;;;;;12.32;3.90;;;;;;;;;;5030274;28;20295;-63
2022/05/17 11:20:40;;;;;;;9.85;3.95;;;;;;;;;;5030943;28;20212;-64
2022/05/17 11:23:06;;;;;;;7.53;3.45;;;;;;;;;;5030814;28;20277;-63
2022/05/17 11:25:50;;;;;;;6.45;3.00;;;;;;;;;;5030644;28;20204;-63
2022/05/17 11:28:16;;;;;;;10.00;3.78;;;;;;;;;;5030149;28;20220;-63
2022/05/17 11:31:00;;;;;;;11.77;3.72;;;;;;;;;;5030871;28;20660;-63
2022/05/17 11:33:36;;;;;;;8.05;3.50;;;;;;;;;;5016620;28;20224;-63
2022/05/17 11:36:03;;;;;;;11.90;4.05;;;;;;;;;;5011292;28;20204;-63
2022/05/17 11:38:32;;;;;;;10.23;4.03;;;;;;;;;;5010244;28;20334;-64
2022/05/17 11:40:58;;;;;;;10.68;4.95;;;;;;;;;;5010548;28;20216;-63
2022/05/17 11:43:41;;;;;;;13.77;4.78;;;;;;;;;;5012483;28;20298;-63
2022/05/17 11:46:31;;;;;;;11.73;4.60;;;;;;;;;;5012839;28;20220;-63
2022/05/17 11:48:56;;;;;;;11.07;4.30;;;;;;;;;;5043564;28;20223;-63
2022/05/17 11:51:22;;;;;;;10.93;4.65;;;;;;;;;;5050200;28;20227;-63
2022/05/17 11:53:48;;;;;;;15.30;4.75;;;;;;;;;;5032441;28;20726;-63
2022/05/17 11:56:13;;;;;;;9.70;4.20;;;;;;;;;;5050226;28;20690;-64
2022/05/17 11:58:39;;;;;;;9.13;4.20;;;;;;;;;;5050692;28;20328;-63
2022/05/17 12:01:24;;;;;;;10.15;5.40;;;;;;;;;;5049529;28;20218;-63
2022/05/17 12:03:51;;;;;;;13.70;6.15;;;;;;;;;;5053382;28;20288;-64
2022/05/17 12:06:29;;;;;;;12.05;5.93;;;;;;;;;;5054059;28;20215;-63
2022/05/17 12:08:55;;;;;;;13.32;6.32;;;;;;;;;;5053731;28;20249;-63
2022/05/17 12:11:31;;;;;;;12.45;5.57;;;;;;;;;;5054201;28;20247;-63
2022/05/17 12:14:13;;;;;;;11.88;5.72;;;;;;;;;;5036189;28;20277;-63
2022/05/17 12:16:44;;;;;;;11.82;6.07;;;;;;;;;;5030295;28;20220;-63
2022/05/17 12:19:14;;;;;;;15.00;6.10;;;;;;;;;;5033869;28;20204;-63
2022/05/17 12:21:42;;;;;;;18.33;6.55;;;;;;;;;;5049178;28;20278;-63
2022/05/17 12:24:17;;;;;;;12.65;5.70;;;;;;;;;;5049260;28;20234;-63
2022/05/17 12:26:42;;;;;;;13.18;5.90;;;;;;;;;;5049767;28;20285;-63
2022/05/17 12:31:59;;;;;;;10.43;3.50;;;;;;;;;;5046391;28;20235;-63
2022/05/17 12:34:24;;;;;;;9.60;3.63;;;;;;;;;;5013957;28;20271;-63
2022/05/17 12:36:49;;;;;;;9.55;3.63;;;;;;;;;;5013763;28;20220;-63
2022/05/17 12:44:44;;;;;;;8.93;3.60;;;;;;;;;;5033378;28;20342;-63
2022/05/17 12:47:17;;;;;;;7.63;3.80;;;;;;;;;;5017712;28;20220;-63
2022/05/17 12:49:42;;;;;;;7.75;4.45;;;;;;;;;;5052828;28;20237;-63
2022/05/17 12:52:09;;;;;;;8.35;4.82;;;;;;;;;;5053231;28;20588;-63
2022/05/17 12:54:35;;;;;;;8.77;4.18;;;;;;;;;;5053535;28;20286;-64
2022/05/17 12:57:04;;;;;;;8.85;4.63;;;;;;;;;;5053009;28;20298;-63
2022/05/17 12:59:31;;;;;;;15.05;5.55;;;;;;;;;;5015345;28;20705;-63
2022/05/17 13:01:57;;;;;;;9.05;4.85;;;;;;;;;;5033524;28;20228;-63
2022/05/17 13:04:25;;;;;;;10.23;6.20;;;;;;;;;;5032077;28;20212;-63
2022/05/17 13:06:51;;;;;;;10.85;5.28;;;;;;;;;;5015821;28;20237;-63
2022/05/17 13:09:16;;;;;;;11.40;5.88;;;;;;;;;;5032740;28;20582;-63
2022/05/17 13:11:41;;;;;;;14.38;6.15;;;;;;;;;;5032698;28;20302;-63
2022/05/17 13:14:08;;;;;;;10.32;6.10;;;;;;;;;;5032100;28;20738;-63
2022/05/17 13:16:34;;;;;;;12.15;6.40;;;;;;;;;;5012453;28;20211;-63
2022/05/17 13:19:00;;;;;;;11.25;5.40;;;;;;;;;;5016256;28;20248;-63
2022/05/17 13:21:28;;;;;;;10.18;5.00;;;;;;;;;;5021480;28;20219;-63
2022/05/17 13:23:56;;;;;;;10.93;4.63;;;;;;;;;;5028619;28;20687;-63
2022/05/17 13:26:24;;;;;;;11.35;5.70;;;;;;;;;;5027400;28;20220;-63
2022/05/17 13:28:49;;;;;;;9.35;4.40;;;;;;;;;;5028760;28;20204;-63
2022/05/17 13:31:18;;;;;;;6.78;4.00;;;;;;;;;;5012550;28;20235;-63
2022/05/17 13:34:00;;;;;;;9.02;3.28;;;;;;;;;;5012362;28;20727;-63
2022/05/17 13:36:30;;;;;;;5.35;2.50;;;;;;;;;;5000974;28;21051;-63
2022/05/17 13:38:55;;;;;;;7.32;2.33;;;;;;;;;;4993059;28;20224;-63
2022/05/17 13:41:23;;;;;;;7.07;2.35;;;;;;;;;;4993159;28;20363;-63
2022/05/17 13:43:51;;;;;;;5.25;1.77;;;;;;;;;;4976490;28;20214;-63
2022/05/17 13:46:17;;;;;;;7.72;2.70;;;;;;;;;;4991729;28;20228;-63
2022/05/17 13:48:48;;;;;;;7.53;2.28;;;;;;;;;;5007798;28;20220;-63
2022/05/17 13:51:32;;;;;;;5.63;2.20;;;;;;;;;;5012063;28;20228;-63
2022/05/17 13:54:00;;;;;;;5.60;2.42;;;;;;;;;;5012397;28;20220;-63
2022/05/17 13:56:29;;;;;;;6.57;2.50;;;;;;;;;;5011634;28;20232;-63
2022/05/17 13:58:54;;;;;;;6.57;2.38;;;;;;;;;;5012790;28;20282;-63
2022/05/17 14:01:33;;;;;;;5.60;2.05;;;;;;;;;;5029117;28;20235;-63
2022/05/17 14:04:03;;;;;;;8.23;1.88;;;;;;;;;;5052427;28;20237;-63
2022/05/17 14:06:28;;;;;;;5.78;1.98;;;;;;;;;;5051564;28;20245;-63
2022/05/17 14:11:49;;;;;;;3.45;1.73;;;;;;;;;;5051417;28;20222;-63
2022/05/17 14:14:16;;;;;;;5.85;1.90;;;;;;;;;;5050653;28;20235;-63
2022/05/17 14:16:42;;;;;;;9.43;2.10;;;;;;;;;;5048625;28;20261;-63
2022/05/17 14:19:10;;;;;;;7.28;2.67;;;;;;;;;;5051534;28;20222;-63
2022/05/17 14:21:35;;;;;;;5.50;1.90;;;;;;;;;;5033566;28;20221;-63
2022/05/17 14:24:00;;;;;;;5.65;2.28;;;;;;;;;;5034048;28;20211;-63
2022/05/17 14:26:26;;;;;;;7.38;2.22;;;;;;;;;;5050460;28;20218;-63
2022/05/17 14:28:51;;;;;;;6.40;2.10;;;;;;;;;;5051098;28;20211;-63
2022/05/17 14:31:19;;;;;;;9.05;2.00;;;;;;;;;;5051092;28;20222;-63
2022/05/17 14:33:45;;;;;;;5.45;1.90;;;;;;;;;;5011875;28;20208;-63
2022/05/17 14:36:13;;;;;;;4.90;1.50;;;;;;;;;;5026123;28;20208;-63
2022/05/17 14:38:38;;;;;;;5.75;1.52;;;;;;;;;;5012046;28;20220;-63
2022/05/17 14:41:04;;;;;;;7.38;1.60;;;;;;;;;;5011429;28;20216;-63
2022/05/17 14:43:29;;;;;;;6.43;1.67;;;;;;;;;;5011267;28;20212;-63
2022/05/17 14:45:55;;;;;;;5.00;1.70;;;;;;;;;;5011900;28;20223;-63
2022/05/17 14:48:21;;;;;;;4.10;1.63;;;;;;;;;;5023211;28;20216;-63
2022/05/17 14:50:46;;;;;;;4.95;1.40;;;;;;;;;;5030987;28;20254;-63
2022/05/17 14:53:12;;;;;;;3.83;1.50;;;;;;;;;;5031085;28;20231;-64
2022/05/17 14:55:39;;;;;;;6.40;1.70;;;;;;;;;;5031483;28;20267;-63
2022/05/17 14:58:04;;;;;;;5.22;1.50;;;;;;;;;;5030310;28;20635;-63